Time;durP1;ratioP1;P1;durP2;ratioP2;P2;SDS_P1;SDS_P2;PMS_P1;PMS_P2;Temp;Humidity;BMP_temperature;BMP_pressure;BME280_temperature;BME280_humidity;BME280_pressure;Samples;Min_cycle;Max_cycle;Signal;HPM_P1;HPM_P2
2023/01/11 00:01:37;;;;;;;7.57;2.70;;;;;;;8.13;100.00;100617.25;5260111;28;20523;-79
2023/01/11 00:04:08;;;;;;;8.17;2.97;;;;;;;8.14;100.00;100619.78;5259098;28;20032;-81
2023/01/11 00:06:40;;;;;;;5.07;2.60;;;;;;;8.17;100.00;100614.38;5259516;28;20079;-76
2023/01/11 00:09:12;;;;;;;9.73;3.20;;;;;;;8.21;100.00;100615.91;5257265;28;20809;-81
2023/01/11 00:11:43;;;;;;;6.57;2.63;;;;;;;8.22;100.00;100619.38;5260269;28;20383;-82
2023/01/11 00:14:14;;;;;;;6.47;2.57;;;;;;;8.26;100.00;100618.28;5258954;28;20052;-82
2023/01/11 00:16:46;;;;;;;5.73;2.30;;;;;;;8.27;100.00;100619.13;5260041;28;20052;-76
2023/01/11 00:19:17;;;;;;;5.73;2.13;;;;;;;8.16;100.00;100599.66;5259585;28;20032;-75
2023/01/11 00:21:48;;;;;;;4.37;2.57;;;;;;;8.31;100.00;100610.19;5257958;28;20551;-78
2023/01/11 00:24:19;;;;;;;5.83;2.07;;;;;;;8.27;100.00;100599.09;5258502;28;20059;-86
2023/01/11 00:26:51;;;;;;;5.03;2.20;;;;;;;8.31;100.00;100603.22;5258774;28;20025;-77
2023/01/11 00:29:22;;;;;;;3.93;1.93;;;;;;;8.31;100.00;100604.97;5258545;28;20039;-82
2023/01/11 00:31:53;;;;;;;4.80;1.93;;;;;;;8.34;100.00;100602.22;5257470;28;20051;-85
2023/01/11 00:34:25;;;;;;;5.97;1.67;;;;;;;8.38;100.00;100601.09;5256968;28;20032;-82
2023/01/11 00:36:56;;;;;;;2.93;1.90;;;;;;;8.39;100.00;100600.19;5257244;28;20040;-81
2023/01/11 00:39:28;;;;;;;6.07;1.90;;;;;;;8.38;100.00;100598.50;5255403;28;20680;-81
2023/01/11 00:47:59;;;;;;;3.93;2.03;;;;;;;8.37;100.00;100575.09;5257668;28;20495;-78
2023/01/11 00:50:36;;;;;;;5.40;2.63;;;;;;;8.39;100.00;100584.53;5257419;28;20712;-86
2023/01/11 00:53:08;;;;;;;5.87;2.80;;;;;;;8.42;100.00;100589.59;5257653;28;20035;-80
2023/01/11 00:55:39;;;;;;;5.30;2.07;;;;;;;8.42;100.00;100586.97;5255722;28;20395;-84
2023/01/11 00:58:11;;;;;;;8.23;2.33;;;;;;;8.44;100.00;100595.56;5257071;28;20033;-77
2023/01/11 01:00:42;;;;;;;6.20;2.20;;;;;;;8.45;100.00;100586.78;5257063;28;20099;-85
2023/01/11 01:03:13;;;;;;;6.10;2.23;;;;;;;8.45;100.00;100573.75;5256316;28;20090;-83
2023/01/11 01:05:44;;;;;;;4.40;2.37;;;;;;;8.46;100.00;100582.44;5257172;28;20078;-82
2023/01/11 01:08:16;;;;;;;6.50;2.67;;;;;;;8.51;100.00;100582.16;5256313;28;20029;-75
2023/01/11 01:10:51;;;;;;;4.80;2.37;;;;;;;8.47;100.00;100564.06;5255605;28;20135;-83
2023/01/11 01:16:11;;;;;;;5.60;2.37;;;;;;;8.52;100.00;100589.09;5256489;28;20112;-77
2023/01/11 01:18:43;;;;;;;6.77;2.80;;;;;;;8.53;100.00;100589.00;5256930;28;20108;-82
2023/01/11 01:21:14;;;;;;;6.23;2.07;;;;;;;8.50;100.00;100570.06;5256598;28;20094;-80
2023/01/11 01:23:45;;;;;;;6.03;3.17;;;;;;;8.55;100.00;100579.31;5256077;28;20079;-84
2023/01/11 01:26:17;;;;;;;7.10;2.60;;;;;;;8.57;100.00;100574.03;5256354;28;20108;-86
2023/01/11 01:28:51;;;;;;;4.93;2.70;;;;;;;8.64;100.00;100587.59;5254782;28;20028;-79
2023/01/11 01:31:22;;;;;;;8.13;3.08;;;;;;;8.66;100.00;100583.09;5255128;28;20476;-83
2023/01/11 01:33:53;;;;;;;4.13;2.40;;;;;;;8.71;100.00;100584.53;5256789;28;20017;-83
2023/01/11 01:36:25;;;;;;;4.37;2.40;;;;;;;8.63;100.00;100567.63;5255708;28;20033;-75
2023/01/11 01:38:59;;;;;;;6.30;2.30;;;;;;;8.79;100.00;100578.91;5255585;28;20033;-84
2023/01/11 01:41:30;;;;;;;6.43;2.85;;;;;;;8.76;100.00;100573.81;5255762;28;20635;-77
2023/01/11 01:44:24;;;;;;;4.67;2.40;;;;;;;8.79;100.00;100578.03;5254826;28;20029;-85
2023/01/11 01:46:55;;;;;;;5.70;2.37;;;;;;;8.84;100.00;100586.47;5256793;28;20494;-87
2023/01/11 01:49:26;;;;;;;6.10;2.73;;;;;;;8.87;100.00;100590.66;5258262;28;20028;-77
2023/01/11 01:51:58;;;;;;;4.07;2.97;;;;;;;8.94;100.00;100578.94;5256876;28;20036;-87
2023/01/11 01:54:35;;;;;;;5.77;3.03;;;;;;;8.97;100.00;100578.78;5255166;28;20021;-86
2023/01/11 01:57:15;;;;;;;5.13;2.40;;;;;;;8.90;100.00;100572.22;5242618;28;20036;-84
2023/01/11 01:59:50;;;;;;;5.93;2.23;;;;;;;9.06;100.00;100580.84;5235684;28;20385;-79
2023/01/11 02:02:23;;;;;;;6.43;2.80;;;;;;;9.02;100.00;100578.50;5253212;28;20066;-85
2023/01/11 02:04:56;;;;;;;6.50;2.53;;;;;;;8.91;100.00;100579.97;5257736;28;20040;-82
2023/01/11 02:07:32;;;;;;;6.43;2.57;;;;;;;8.90;100.00;100573.03;5255087;28;20488;-71
2023/01/11 02:10:20;;;;;;;4.30;2.37;;;;;;;8.98;100.00;100577.84;5254333;28;20102;-86
2023/01/11 02:12:59;;;;;;;3.23;2.17;;;;;;;8.96;100.00;100564.03;5255711;28;20107;-71
2023/01/11 02:15:30;;;;;;;4.27;2.30;;;;;;;9.05;100.00;100573.09;5255600;28;20064;-83
2023/01/11 02:18:02;;;;;;;7.13;2.33;;;;;;;9.10;100.00;100571.06;5255475;28;20057;-83
2023/01/11 02:20:51;;;;;;;4.40;2.60;;;;;;;9.15;100.00;100576.84;5255516;28;20039;-83
2023/01/11 02:23:53;;;;;;;3.67;1.93;;;;;;;9.13;100.00;100581.31;5255140;28;20029;-79
2023/01/11 02:26:49;;;;;;;3.33;2.20;;;;;;;9.16;100.00;100570.69;5255857;28;20025;-84
2023/01/11 02:29:39;;;;;;;;;;;;;;;9.24;100.00;100577.25;5254005;28;20029;-80
2023/01/11 02:32:29;;;;;;;5.17;2.20;;;;;;;9.23;100.00;100570.34;5255671;28;19912;-86
2023/01/11 02:35:10;;;;;;;3.37;2.20;;;;;;;9.24;100.00;100572.03;5253995;28;20079;-86
2023/01/11 02:37:54;;;;;;;3.97;1.80;;;;;;;9.26;100.00;100562.31;5255848;28;20032;-84
2023/01/11 02:40:46;;;;;;;4.25;1.90;;;;;;;9.30;100.00;100556.81;5253254;28;20049;-74
2023/01/11 02:47:08;;;;;;;4.67;1.77;;;;;;;9.31;100.00;100557.66;5243936;28;20519;-76
2023/01/11 02:49:48;;;;;;;3.07;2.00;;;;;;;9.36;100.00;100560.00;5255100;28;20341;-89
2023/01/11 02:52:37;;;;;;;4.13;1.70;;;;;;;9.36;100.00;100554.78;5255582;28;20131;-89
2023/01/11 02:55:14;;;;;;;5.53;2.30;;;;;;;9.38;100.00;100547.69;5252776;28;20115;-81
2023/01/11 02:57:46;;;;;;;5.10;1.80;;;;;;;9.38;100.00;100552.91;5254979;28;20574;-88
2023/01/11 03:00:18;;;;;;;7.63;2.33;;;;;;;9.31;100.00;100545.44;5255339;28;20033;-84
2023/01/11 03:03:23;;;;;;;4.20;2.00;;;;;;;9.42;100.00;100550.03;5254904;28;20051;-88
2023/01/11 03:06:03;;;;;;;2.08;1.45;;;;;;;9.47;100.00;100543.69;5244189;28;20052;-82
2023/01/11 03:08:50;;;;;;;5.27;1.77;;;;;;;9.48;100.00;100548.00;5254492;28;20033;-77
2023/01/11 03:12:50;;;;;;;4.77;1.93;;;;;;;9.43;100.00;100543.88;5254287;28;20091;-78
2023/01/11 03:14:36;;;;;;;3.73;1.70;;;;;;;9.43;100.00;100538.63;5234110;28;20045;-82
2023/01/11 03:17:32;;;;;;;5.00;1.67;;;;;;;9.44;100.00;100536.88;5233794;28;20029;-85
2023/01/11 03:20:07;;;;;;;4.13;1.70;;;;;;;9.44;100.00;100548.16;5233359;28;20033;-70
2023/01/11 03:22:51;;;;;;;5.20;1.75;;;;;;;9.44;100.00;100540.31;5234436;28;20428;-86
2023/01/11 03:25:39;;;;;;;3.75;2.17;;;;;;;9.46;100.00;100539.41;5232975;28;20029;-75
2023/01/11 03:28:37;;;;;;;5.03;1.90;;;;;;;9.40;100.00;100536.22;5234354;28;20543;-86
2023/01/11 03:31:19;;;;;;;4.00;1.90;;;;;;;9.47;100.00;100544.53;5193103;28;20488;-86
2023/01/11 03:34:26;;;;;;;2.83;1.70;;;;;;;9.40;100.00;100527.53;5234175;28;20068;-72
2023/01/11 03:37:09;;;;;;;3.50;1.83;;;;;;;9.54;100.00;100547.63;5234428;28;20037;-74
2023/01/11 03:40:03;;;;;;;5.43;1.77;;;;;;;9.50;100.00;100548.72;5233046;28;20033;-80
2023/01/11 03:43:09;;;;;;;1.87;1.53;;;;;;;9.51;100.00;100547.81;5232980;28;20116;-82
2023/01/11 03:45:36;;;;;;;2.60;1.47;;;;;;;9.52;100.00;100545.09;5234829;28;20068;-70
2023/01/11 03:48:12;;;;;;;5.70;1.63;;;;;;;9.53;100.00;100540.72;5254997;28;20029;-81
2023/01/11 03:50:46;;;;;;;5.07;1.73;;;;;;;9.53;100.00;100535.47;5255002;28;20057;-85
2023/01/11 03:53:19;;;;;;;2.53;1.58;;;;;;;9.49;100.00;100534.81;5254195;28;20405;-80
2023/01/11 03:55:58;;;;;;;3.03;1.60;;;;;;;9.47;100.00;100523.63;5261638;28;20478;-81
2023/01/11 03:58:29;;;;;;;2.77;1.43;;;;;;;9.54;100.00;100531.94;5258514;28;20032;-83
2023/01/11 04:01:02;;;;;;;2.27;1.30;;;;;;;9.59;100.00;100548.16;5254624;28;20029;-77
2023/01/11 04:03:33;;;;;;;4.13;1.40;;;;;;;9.47;100.00;100530.59;5254482;28;20028;-71
2023/01/11 04:06:04;;;;;;;3.00;1.47;;;;;;;9.64;100.00;100543.50;5254370;28;20029;-86
2023/01/11 04:08:36;;;;;;;2.80;1.57;;;;;;;9.63;100.00;100552.28;5255390;28;20029;-85
2023/01/11 04:11:07;;;;;;;2.60;1.73;;;;;;;9.68;100.00;100549.38;5258421;28;20045;-88
2023/01/11 04:13:38;;;;;;;3.20;1.87;;;;;;;9.72;100.00;100550.03;5258028;28;20086;-87
2023/01/11 04:16:09;;;;;;;3.43;2.47;;;;;;;9.72;100.00;100561.31;5257369;28;20036;-82
2023/01/11 04:18:41;;;;;;;4.10;2.73;;;;;;;9.74;100.00;100567.31;5258926;28;20049;-81
2023/01/11 04:21:12;;;;;;;3.03;2.70;;;;;;;9.72;100.00;100568.34;5257308;28;20032;-86
2023/01/11 04:23:44;;;;;;;6.43;2.57;;;;;;;9.76;100.00;100561.97;5257401;28;20021;-83
2023/01/11 04:26:16;;;;;;;3.73;2.53;;;;;;;9.77;100.00;100563.69;5258599;28;20114;-78
2023/01/11 04:28:47;;;;;;;3.37;2.50;;;;;;;9.78;100.00;100560.13;5257572;28;20021;-87
2023/01/11 04:31:18;;;;;;;5.93;3.00;;;;;;;9.74;100.00;100556.03;5258088;28;20025;-78
2023/01/11 04:33:50;;;;;;;3.87;2.87;;;;;;;9.83;100.00;100568.53;5256446;28;20032;-77
2023/01/11 04:36:21;;;;;;;3.70;3.07;;;;;;;9.86;100.00;100568.34;5257338;28;20075;-79
2023/01/11 04:38:52;;;;;;;4.90;2.60;;;;;;;9.84;100.00;100575.47;5257268;28;20021;-86
2023/01/11 04:44:13;;;;;;;3.87;3.07;;;;;;;9.82;100.00;100577.31;5257581;28;20480;-79
2023/01/11 04:46:45;;;;;;;7.70;2.93;;;;;;;9.86;100.00;100589.25;5258349;28;20029;-78
2023/01/11 04:49:16;;;;;;;5.27;2.40;;;;;;;9.90;100.00;100590.75;5257293;28;20021;-81
2023/01/11 04:51:47;;;;;;;3.73;2.57;;;;;;;9.79;100.00;100582.75;5257541;28;20029;-87
2023/01/11 04:54:19;;;;;;;3.47;2.70;;;;;;;9.84;100.00;100598.16;5256639;28;20033;-75
2023/01/11 04:56:50;;;;;;;4.10;2.80;;;;;;;9.85;100.00;100597.19;5257719;28;20083;-87
2023/01/11 04:59:21;;;;;;;5.10;3.63;;;;;;;9.81;100.00;100588.69;5256731;28;20037;-83
2023/01/11 05:01:52;;;;;;;2.83;2.60;;;;;;;9.79;100.00;100582.75;5256691;28;20494;-80
2023/01/11 05:04:24;;;;;;;3.60;2.73;;;;;;;9.76;100.00;100568.06;5256560;28;20078;-73
2023/01/11 05:06:55;;;;;;;2.97;2.23;;;;;;;9.83;100.00;100580.78;5257360;28;20056;-84
2023/01/11 05:09:26;;;;;;;4.63;1.77;;;;;;;9.85;100.00;100587.59;5255645;28;20102;-86
2023/01/11 05:11:58;;;;;;;2.97;1.70;;;;;;;9.86;100.00;100589.25;5257162;28;20060;-84
2023/01/11 05:14:29;;;;;;;1.93;1.57;;;;;;;9.85;100.00;100592.81;5257199;28;20039;-84
2023/01/11 05:17:00;;;;;;;3.17;1.47;;;;;;;9.88;100.00;100594.41;5256022;28;20021;-78
2023/01/11 05:19:32;;;;;;;2.00;1.33;;;;;;;9.85;100.00;100586.75;5255202;28;20479;-74
2023/01/11 05:22:03;;;;;;;4.80;1.63;;;;;;;9.87;100.00;100606.66;5254297;28;20120;-78
2023/01/11 05:24:35;;;;;;;2.97;1.87;;;;;;;9.88;100.00;100602.28;5256405;28;20024;-80
2023/01/11 05:27:06;;;;;;;6.20;1.80;;;;;;;9.91;100.00;100610.75;5256960;28;20031;-82
2023/01/11 05:29:37;;;;;;;4.87;2.37;;;;;;;9.89;100.00;100603.94;5255937;28;20601;-84
2023/01/11 05:32:11;;;;;;;5.03;3.77;;;;;;;9.90;100.00;100614.31;5256487;28;20404;-83
2023/01/11 05:34:42;;;;;;;7.83;4.10;;;;;;;9.81;100.00;100601.78;5256484;28;20037;-78
2023/01/11 05:37:13;;;;;;;4.83;4.30;;;;;;;9.79;100.00;100598.44;5256504;28;20033;-81
2023/01/11 05:39:44;;;;;;;8.07;4.60;;;;;;;9.88;100.00;100610.94;5256470;28;20458;-85
2023/01/11 05:42:16;;;;;;;7.80;5.00;;;;;;;9.87;100.00;100617.13;5256002;28;20051;-82
2023/01/11 05:47:37;;;;;;;6.70;6.00;;;;;;;9.86;100.00;100618.03;5256517;28;20527;-77
2023/01/11 05:50:09;;;;;;;9.97;6.00;;;;;;;9.86;100.00;100625.88;5256418;28;20132;-76
2023/01/11 05:52:40;;;;;;;9.77;5.90;;;;;;;9.87;100.00;100613.66;5256317;28;20017;-83
2023/01/11 05:55:11;;;;;;;9.17;6.50;;;;;;;9.85;100.00;100618.13;5255011;28;20029;-78
2023/01/11 05:57:43;;;;;;;9.13;6.30;;;;;;;9.86;100.00;100618.03;5257073;28;20029;-83
2023/01/11 06:00:15;;;;;;;9.43;6.20;;;;;;;9.74;100.00;100613.56;5255682;28;20033;-84
2023/01/11 06:02:46;;;;;;;7.37;6.57;;;;;;;9.85;100.00;100634.66;5255340;28;20056;-82
2023/01/11 06:05:18;;;;;;;9.53;4.07;;;;;;;9.71;100.00;100643.34;5255523;28;20092;-78
2023/01/11 06:07:49;;;;;;;14.50;4.80;;;;;;;9.66;100.00;100643.63;5255659;28;20047;-72
2023/01/11 06:10:20;;;;;;;13.90;4.43;;;;;;;9.63;100.00;100651.66;5255784;28;20591;-83
2023/01/11 06:13:25;;;;;;;12.00;4.10;;;;;;;9.66;100.00;100646.25;5256197;28;20426;-84
2023/01/11 06:15:43;;;;;;;14.53;4.10;;;;;;;9.59;100.00;100644.91;5255393;28;20638;-79
2023/01/11 06:18:14;;;;;;;15.80;3.57;;;;;;;9.59;100.00;100659.75;5255497;28;20028;-85
2023/01/11 06:20:50;;;;;;;21.67;3.60;;;;;;;9.47;100.00;100666.53;5255780;28;20115;-85
2023/01/11 06:23:22;;;;;;;18.83;3.93;;;;;;;9.54;100.00;100660.88;5253616;28;20037;-80
2023/01/11 06:25:54;;;;;;;17.87;4.47;;;;;;;9.55;100.00;100673.00;5254941;28;20039;-74
2023/01/11 06:28:25;;;;;;;14.73;3.40;;;;;;;9.54;100.00;100665.25;5255199;28;20025;-83
2023/01/11 06:30:58;;;;;;;17.53;4.70;;;;;;;9.50;100.00;100658.50;5254764;28;20025;-73
2023/01/11 06:33:30;;;;;;;16.20;3.43;;;;;;;9.50;100.00;100677.66;5254889;28;20025;-81
2023/01/11 06:36:05;;;;;;;15.90;4.13;;;;;;;9.42;100.00;100680.75;5254019;28;20025;-71
2023/01/11 06:38:36;;;;;;;17.53;3.67;;;;;;;9.46;100.00;100680.56;5233285;28;20040;-75
2023/01/11 06:41:09;;;;;;;19.53;4.03;;;;;;;9.48;100.00;100710.06;5242051;28;20033;-74
2023/01/11 06:43:40;;;;;;;19.80;5.03;;;;;;;9.39;100.00;100708.81;5252353;28;20163;-71
2023/01/11 06:46:13;;;;;;;16.87;3.13;;;;;;;9.40;100.00;100697.44;5253309;28;20108;-78
2023/01/11 06:48:45;;;;;;;21.17;4.70;;;;;;;9.39;100.00;100709.66;5253734;28;20025;-80
2023/01/11 06:51:17;;;;;;;15.27;4.23;;;;;;;9.40;100.00;100713.09;5253388;28;20043;-77
2023/01/11 06:53:48;;;;;;;19.83;3.67;;;;;;;9.39;100.00;100733.16;5253805;28;20547;-74
2023/01/11 06:56:19;;;;;;;17.20;5.73;;;;;;;9.39;100.00;100738.41;5254439;28;20064;-71
2023/01/11 06:58:51;;;;;;;16.80;3.80;;;;;;;9.36;100.00;100727.28;5253919;28;20035;-80
2023/01/11 07:01:24;;;;;;;29.10;4.70;;;;;;;9.37;100.00;100731.59;5253463;28;20380;-83
2023/01/11 07:03:56;;;;;;;24.43;5.07;;;;;;;9.34;100.00;100732.59;5270078;28;20361;-80
2023/01/11 07:06:30;;;;;;;23.60;4.20;;;;;;;9.26;100.00;100725.19;5252886;28;20025;-73
2023/01/11 07:09:02;;;;;;;;;;;;;;;9.39;100.00;100722.72;5250312;28;20060;-77
2023/01/11 07:11:37;;;;;;;24.07;5.40;;;;;;;9.26;100.00;100735.66;5252255;28;19913;-81
2023/01/11 07:14:10;;;;;;;27.13;5.70;;;;;;;9.20;100.00;100734.22;5250550;28;20028;-74
2023/01/11 07:16:42;;;;;;;23.73;4.47;;;;;;;9.25;100.00;100746.19;5252649;28;20108;-78
2023/01/11 07:19:13;;;;;;;25.07;5.87;;;;;;;9.23;100.00;100746.28;5253306;28;20166;-80
2023/01/11 07:21:44;;;;;;;29.93;6.50;;;;;;;9.25;100.00;100772.31;5254631;28;20048;-81
2023/01/11 07:24:16;;;;;;;18.30;5.27;;;;;;;9.25;100.00;100772.31;5252316;28;20445;-82
2023/01/11 07:26:47;;;;;;;20.50;4.37;;;;;;;9.05;100.00;100740.28;5254818;28;20525;-72
2023/01/11 07:29:18;;;;;;;21.93;5.13;;;;;;;9.21;100.00;100779.50;5254273;28;20476;-74
2023/01/11 07:31:50;;;;;;;26.57;5.20;;;;;;;9.18;100.00;100777.88;5254647;28;20024;-79
2023/01/11 07:34:22;;;;;;;25.90;6.10;;;;;;;9.05;100.00;100767.28;5253662;28;20766;-78
2023/01/11 07:36:54;;;;;;;25.47;5.33;;;;;;;9.10;100.00;100774.84;5253600;28;20488;-78
2023/01/11 07:39:25;;;;;;;21.70;5.33;;;;;;;9.15;100.00;100785.88;5252523;28;20053;-80
2023/01/11 07:44:46;;;;;;;21.30;5.23;;;;;;;9.10;100.00;100802.72;5253585;28;20041;-76
2023/01/11 07:47:17;;;;;;;28.00;5.57;;;;;;;9.05;100.00;100792.53;5254798;28;20597;-79
2023/01/11 07:49:49;;;;;;;26.33;6.43;;;;;;;9.08;100.00;100806.28;5257192;28;20032;-77
2023/01/11 07:52:20;;;;;;;26.30;5.47;;;;;;;9.05;100.00;100813.44;5256144;28;20032;-80
2023/01/11 07:54:51;;;;;;;33.30;5.80;;;;;;;9.01;100.00;100824.97;5254214;28;20381;-76
2023/01/11 07:57:23;;;;;;;23.47;4.93;;;;;;;9.02;100.00;100822.31;5256105;28;20025;-75
2023/01/11 07:59:54;;;;;;;30.47;6.27;;;;;;;8.97;100.00;100828.69;5256377;28;20037;-74
2023/01/11 08:02:25;;;;;;;27.43;5.97;;;;;;;8.98;100.00;100832.97;5253312;28;20037;-79
2023/01/11 08:04:57;;;;;;;25.47;6.27;;;;;;;8.94;100.00;100829.69;5256680;28;20025;-75
2023/01/11 08:07:28;;;;;;;29.63;5.93;;;;;;;8.92;100.00;100835.00;5255033;28;20590;-71
2023/01/11 08:09:59;;;;;;;23.70;4.60;;;;;;;8.94;100.00;100840.97;5255988;28;20059;-79
2023/01/11 08:15:20;;;;;;;25.00;5.27;;;;;;;8.71;100.00;100850.88;5252895;28;20029;-77
2023/01/11 08:17:52;;;;;;;19.57;5.23;;;;;;;8.73;100.00;100847.34;5256811;28;20033;-79
2023/01/11 08:20:23;;;;;;;24.87;5.30;;;;;;;8.83;100.00;100872.88;5255752;28;20083;-79
2023/01/11 08:22:55;;;;;;;28.57;5.37;;;;;;;8.77;100.00;100874.97;5254971;28;20486;-79
2023/01/11 08:25:26;;;;;;;23.23;5.90;;;;;;;8.86;100.00;100884.94;5256945;28;20368;-75
2023/01/11 08:28:02;;;;;;;26.70;5.70;;;;;;;8.80;100.00;100887.88;5254182;28;20037;-76
2023/01/11 08:30:34;;;;;;;24.23;8.20;;;;;;;8.80;100.00;100893.94;5252210;28;20074;-72
2023/01/11 08:33:05;;;;;;;20.10;4.77;;;;;;;8.80;100.00;100913.97;5246280;28;20400;-79
2023/01/11 08:35:38;;;;;;;23.87;5.70;;;;;;;8.75;100.00;100910.75;5255533;28;20062;-79
2023/01/11 08:38:09;;;;;;;24.20;6.63;;;;;;;8.75;100.00;100913.38;5251812;28;20029;-74
2023/01/11 08:40:41;;;;;;;25.57;5.80;;;;;;;8.73;100.00;100915.25;5250854;28;20114;-83
2023/01/11 08:43:12;;;;;;;28.23;5.33;;;;;;;8.71;100.00;100916.13;5255448;28;20120;-74
2023/01/11 08:45:43;;;;;;;20.07;4.43;;;;;;;8.58;100.00;100909.84;5254828;28;20033;-75
2023/01/11 08:48:15;;;;;;;19.03;4.80;;;;;;;8.67;100.00;100930.28;5265593;28;20042;-76
2023/01/11 08:50:46;;;;;;;30.77;7.57;;;;;;;8.64;100.00;100927.00;5256636;28;20025;-75
2023/01/11 08:53:19;;;;;;;22.83;6.07;;;;;;;8.65;100.00;100934.75;5252740;28;20028;-77
2023/01/11 08:55:51;;;;;;;17.97;5.47;;;;;;;8.64;100.00;100935.66;5254142;28;20036;-81
2023/01/11 08:58:24;;;;;;;22.93;4.57;;;;;;;8.59;100.00;100938.50;5251715;28;20396;-74
2023/01/11 09:01:01;;;;;;;27.57;5.60;;;;;;;8.58;100.00;100951.63;5269305;28;20039;-76
2023/01/11 09:03:33;;;;;;;25.03;4.70;;;;;;;8.55;100.00;100963.06;5255617;28;20033;-76
2023/01/11 09:06:04;;;;;;;21.13;5.13;;;;;;;8.53;100.00;100959.66;5254324;28;20032;-73
2023/01/11 09:08:35;;;;;;;17.87;3.60;;;;;;;8.55;100.00;100959.59;5254708;28;20033;-77
2023/01/11 09:11:52;;;;;;;28.80;5.07;;;;;;;8.53;100.00;100964.03;5256062;28;20123;-84
2023/01/11 09:13:58;;;;;;;25.13;5.10;;;;;;;8.55;100.00;100962.19;5251589;28;20044;-85
2023/01/11 09:16:30;;;;;;;24.07;5.20;;;;;;;8.56;100.00;100963.91;5256520;28;20376;-82
2023/01/11 09:19:01;;;;;;;22.43;4.50;;;;;;;8.47;100.00;100960.81;5254202;28;20070;-74
2023/01/11 09:21:32;;;;;;;28.23;5.53;;;;;;;8.50;100.00;100972.03;5254359;28;20028;-82
2023/01/11 09:24:04;;;;;;;21.17;5.17;;;;;;;8.48;100.00;100962.47;5251526;28;20119;-78
2023/01/11 09:26:36;;;;;;;22.10;4.50;;;;;;;8.51;100.00;100973.69;5255130;28;20037;-74
2023/01/11 09:29:09;;;;;;;23.73;4.93;;;;;;;8.50;100.00;100969.41;5252255;28;20721;-75
2023/01/11 09:31:40;;;;;;;30.33;6.00;;;;;;;8.40;100.00;100969.00;5249036;28;20036;-78
2023/01/11 09:34:12;;;;;;;25.03;6.37;;;;;;;8.37;100.00;100970.00;5256059;28;20442;-77
2023/01/11 09:36:46;;;;;;;27.17;5.77;;;;;;;8.35;100.00;100977.06;5255441;28;20484;-74
2023/01/11 09:39:19;;;;;;;22.52;5.68;;;;;;;8.37;100.00;100983.06;5269313;28;20025;-70
2023/01/11 09:42:04;;;;;;;22.03;3.90;;;;;;;8.40;100.00;100992.50;5255975;28;20055;-80
2023/01/11 09:44:56;;;;;;;26.45;5.70;;;;;;;8.41;100.00;100997.63;5255458;28;20534;-82
2023/01/11 09:47:39;;;;;;;22.87;4.57;;;;;;;8.68;100.00;100989.41;5255452;28;20025;-78
2023/01/11 09:50:27;;;;;;;21.73;4.50;;;;;;;9.07;100.00;100994.47;5255513;28;20467;-83
2023/01/11 09:53:03;;;;;;;18.93;4.10;;;;;;;9.14;100.00;101001.09;5254540;28;20053;-83
2023/01/11 09:55:39;;;;;;;23.63;4.30;;;;;;;9.24;100.00;101011.03;5254358;28;20052;-80
2023/01/11 09:58:41;;;;;;;26.47;6.07;;;;;;;9.14;100.00;101015.91;5255124;28;20446;-75
2023/01/11 10:01:37;;;;;;;19.27;4.20;;;;;;;8.79;100.00;100990.66;5267595;28;20095;-80
2023/01/11 10:04:39;;;;;;;16.90;4.53;;;;;;;8.84;100.00;101020.00;5252050;28;20028;-80
2023/01/11 10:07:30;;;;;;;20.37;5.13;;;;;;;8.80;100.00;101018.44;5250398;28;20032;-72
2023/01/11 10:10:47;;;;;;;19.50;5.30;;;;;;;8.74;100.00;101014.38;5253166;28;20037;-71
2023/01/11 10:13:24;;;;;;;28.90;6.20;;;;;;;8.78;100.00;101015.91;5254344;28;20017;-74
2023/01/11 10:16:17;;;;;;;15.17;3.73;;;;;;;8.81;100.00;101009.69;5254245;28;20040;-76
2023/01/11 10:19:15;;;;;;;24.13;4.87;;;;;;;8.73;100.00;100998.81;5252033;28;20515;-81
2023/01/11 10:21:46;;;;;;;26.43;4.70;;;;;;;8.86;100.00;101023.38;5248928;28;20045;-80
2023/01/11 10:24:28;;;;;;;24.33;4.90;;;;;;;8.89;100.00;101027.59;5252715;28;20087;-78
2023/01/11 10:27:02;;;;;;;16.57;4.03;;;;;;;8.88;100.00;101015.47;5254538;28;20017;-77
2023/01/11 10:30:32;;;;;;;21.85;4.97;;;;;;;8.92;100.00;101009.19;5254115;28;20025;-80
2023/01/11 10:36:13;;;;;;;22.48;5.05;;;;;;;8.93;100.00;101016.06;5254685;28;20037;-77
2023/01/11 10:42:24;;;;;;;20.20;4.63;;;;;;;8.97;100.00;101019.38;5236191;28;20484;-77
2023/01/11 10:44:59;;;;;;;17.10;4.03;;;;;;;9.03;100.00;101019.06;5269488;28;20021;-74
2023/01/11 10:47:54;;;;;;;19.83;3.70;;;;;;;9.09;100.00;101024.00;5254070;28;20163;-76
2023/01/11 10:50:40;;;;;;;;;;;;;;;9.16;100.00;101021.91;5254732;28;20025;-74
2023/01/11 10:53:22;;;;;;;23.73;4.73;;;;;;;9.25;100.00;101024.03;5253008;28;20310;-78
2023/01/11 10:56:14;;;;;;;20.70;5.17;;;;;;;9.21;100.00;101022.53;5252091;28;20028;-81
2023/01/11 10:59:27;;;;;;;24.40;4.93;;;;;;;9.26;100.00;101020.50;5254307;28;20117;-80
2023/01/11 11:02:19;;;;;;;21.57;4.53;;;;;;;9.28;100.00;101016.06;5254239;28;20635;-75
2023/01/11 11:05:16;;;;;;;18.17;4.93;;;;;;;9.36;100.00;101020.88;5268838;28;20103;-77
2023/01/11 11:08:12;;;;;;;24.43;4.80;;;;;;;9.47;100.00;101019.47;5253525;28;20029;-81
2023/01/11 11:10:57;;;;;;;30.33;6.50;;;;;;;9.41;100.00;101023.22;5253368;28;20060;-74
2023/01/11 11:13:42;;;;;;;21.13;4.40;;;;;;;9.46;100.00;101030.88;5254237;28;20021;-81
2023/01/11 11:16:28;;;;;;;21.37;3.87;;;;;;;9.40;100.00;101025.03;5253578;28;20467;-78
2023/01/11 11:19:00;;;;;;;15.93;4.63;;;;;;;9.30;100.00;101035.09;5253482;28;20044;-80
2023/01/11 11:21:36;;;;;;;22.47;5.20;;;;;;;9.46;100.00;101036.09;5253004;28;20033;-71
2023/01/11 11:24:18;;;;;;;20.90;4.87;;;;;;;9.48;100.00;101032.47;5252287;28;20021;-78
2023/01/11 11:26:57;;;;;;;20.73;5.00;;;;;;;9.54;100.00;101023.44;5253810;28;20574;-80
2023/01/11 11:29:29;;;;;;;21.90;4.60;;;;;;;9.51;100.00;101021.00;5253527;28;20495;-76
2023/01/11 11:32:00;;;;;;;19.57;4.47;;;;;;;9.59;100.00;101037.13;5253822;28;20044;-71
2023/01/11 11:34:32;;;;;;;17.57;4.27;;;;;;;9.61;100.00;101016.97;5253397;28;20508;-74
2023/01/11 11:37:03;;;;;;;18.83;5.20;;;;;;;9.64;100.00;101042.97;5267697;28;20023;-80
2023/01/11 11:39:35;;;;;;;22.87;4.90;;;;;;;9.53;100.00;101042.69;5254129;28;20054;-79
2023/01/11 11:42:15;;;;;;;20.40;4.67;;;;;;;9.73;100.00;101039.00;5253133;28;20021;-70
2023/01/11 11:45:08;;;;;;;22.30;4.40;;;;;;;9.71;100.00;101043.47;5254358;28;20023;-74
2023/01/11 11:47:39;;;;;;;26.83;5.20;;;;;;;9.68;100.00;101047.13;5253911;28;20033;-77
2023/01/11 11:50:19;;;;;;;16.30;3.73;;;;;;;9.82;100.00;101036.81;5253743;28;20021;-79
2023/01/11 11:52:55;;;;;;;23.93;4.93;;;;;;;9.76;100.00;101045.84;5252972;28;20076;-76
2023/01/11 11:55:29;;;;;;;21.30;4.93;;;;;;;9.67;100.00;101037.56;5253096;28;20025;-80
2023/01/11 11:58:11;;;;;;;23.70;5.20;;;;;;;9.83;100.00;101057.66;5253601;28;20025;-79
2023/01/11 12:00:48;;;;;;;21.20;4.90;;;;;;;9.76;100.00;101051.06;5254177;28;20422;-81
2023/01/11 12:03:29;;;;;;;24.87;5.30;;;;;;;9.79;100.00;101053.53;5253165;28;20052;-80
2023/01/11 12:06:03;;;;;;;25.73;5.93;;;;;;;9.77;100.00;101045.75;5269054;28;20067;-71
2023/01/11 12:08:35;;;;;;;18.15;4.32;;;;;;;9.78;100.00;101031.75;5251574;28;20040;-70
2023/01/11 12:11:12;;;;;;;27.07;5.10;;;;;;;9.79;100.00;101035.25;5253009;28;20064;-81
2023/01/11 12:13:58;;;;;;;28.17;5.10;;;;;;;9.83;100.00;101035.91;5252788;28;20037;-75
2023/01/11 12:16:34;;;;;;;16.57;4.10;;;;;;;9.74;100.00;101037.25;5253367;28;20779;-78
2023/01/11 12:19:23;;;;;;;26.33;5.20;;;;;;;9.75;100.00;101041.53;5252917;28;20031;-78
2023/01/11 12:22:16;;;;;;;21.63;6.03;;;;;;;9.76;100.00;101048.44;5251781;28;20082;-74
2023/01/11 12:25:13;;;;;;;25.00;5.13;;;;;;;9.74;100.00;101050.34;5268582;28;20044;-75
2023/01/11 12:28:00;;;;;;;26.13;5.57;;;;;;;9.77;100.00;101044.94;5252510;28;20025;-82
2023/01/11 12:30:57;;;;;;;18.60;4.23;;;;;;;9.77;100.00;101050.16;5252860;28;20028;-71
2023/01/11 12:33:36;;;;;;;20.23;3.93;;;;;;;9.70;100.00;101060.09;5256724;28;20037;-81
2023/01/11 12:36:20;;;;;;;16.33;4.40;;;;;;;9.73;100.00;101054.72;5256785;28;20056;-81